Time;durP1;ratioP1;P1;durP2;ratioP2;P2;SDS_P1;SDS_P2;PMS_P1;PMS_P2;Temp;Humidity;BMP_temperature;BMP_pressure;BME280_temperature;BME280_humidity;BME280_pressure;Samples;Min_cycle;Max_cycle;Signal;HPM_P1;HPM_P2
2023/09/14 00:00:47;;;;;;;2.10;1.90;;;;;;;21.32;73.47;99552.63;5110890;28;20245;-62
2023/09/14 00:03:14;;;;;;;3.40;1.60;;;;;;;21.26;74.14;99545.25;5111256;28;20322;-62
2023/09/14 00:05:43;;;;;;;1.60;1.53;;;;;;;21.17;75.60;99553.72;5110358;28;20199;-62
2023/09/14 00:08:10;;;;;;;1.87;1.77;;;;;;;20.99;76.46;99539.34;5111055;28;20204;-62
2023/09/14 00:10:37;;;;;;;1.83;1.73;;;;;;;21.02;77.01;99554.78;5110746;28;20274;-62
2023/09/14 00:13:04;;;;;;;3.90;1.67;;;;;;;20.99;77.20;99555.00;5110564;28;20208;-62
2023/09/14 00:15:31;;;;;;;3.20;1.63;;;;;;;21.01;77.65;99542.66;5107932;28;20624;-63
2023/09/14 00:17:58;;;;;;;2.60;2.40;;;;;;;21.01;77.47;99548.72;5110882;28;20197;-62
2023/09/14 00:20:26;;;;;;;5.57;1.57;;;;;;;20.97;78.10;99551.66;5111112;28;20254;-63
2023/09/14 00:22:57;;;;;;;2.10;1.50;;;;;;;20.98;78.51;99545.50;5108669;28;20292;-63
2023/09/14 00:25:24;;;;;;;2.13;2.00;;;;;;;20.94;78.76;99545.72;5110945;28;20210;-62
2023/09/14 00:27:52;;;;;;;4.57;2.17;;;;;;;20.90;79.03;99546.88;5110330;28;20201;-62
2023/09/14 00:30:19;;;;;;;2.17;2.07;;;;;;;20.85;79.82;99543.75;5111015;28;20280;-62
2023/09/14 00:32:49;;;;;;;2.37;2.20;;;;;;;20.80;79.88;99545.88;5110534;28;20278;-62
2023/09/14 00:35:18;;;;;;;1.83;1.73;;;;;;;20.77;80.43;99546.09;5110550;28;20204;-62
2023/09/14 00:37:45;;;;;;;1.97;1.87;;;;;;;20.80;80.60;99556.28;5111066;28;20574;-62
2023/09/14 00:40:15;;;;;;;2.30;2.20;;;;;;;20.83;80.04;99555.22;5110618;28;20195;-62
2023/09/14 00:42:42;;;;;;;2.60;2.27;;;;;;;20.83;80.05;99561.28;5110390;28;20196;-62
2023/09/14 00:45:12;;;;;;;2.33;1.97;;;;;;;20.83;80.05;99553.47;5110374;28;20201;-62
2023/09/14 00:47:40;;;;;;;4.50;2.43;;;;;;;20.81;80.21;99551.88;5110245;28;20204;-62
2023/09/14 00:50:08;;;;;;;3.90;2.10;;;;;;;20.81;80.80;99557.94;5109679;28;20217;-62
2023/09/14 00:52:36;;;;;;;6.60;1.77;;;;;;;20.75;80.54;99550.53;5110678;28;20238;-63
2023/09/14 00:55:05;;;;;;;7.03;2.07;;;;;;;20.71;81.31;99550.88;5110382;28;20208;-62
2023/09/14 00:57:34;;;;;;;2.77;2.10;;;;;;;20.64;82.13;99545.25;5113335;28;20193;-62
2023/09/14 01:00:06;;;;;;;2.50;2.13;;;;;;;20.55;82.24;99548.47;5113718;28;20199;-62
2023/09/14 01:02:33;;;;;;;2.33;2.23;;;;;;;20.44;82.86;99527.56;5112909;28;20200;-62
2023/09/14 01:05:01;;;;;;;5.13;2.50;;;;;;;20.54;82.88;99544.22;5113834;28;20225;-62
2023/09/14 01:07:28;;;;;;;2.97;2.77;;;;;;;20.46;83.48;99540.47;5113820;28;20208;-62
2023/09/14 01:09:55;;;;;;;3.47;2.13;;;;;;;20.45;83.90;99547.47;5113569;28;20296;-63
2023/09/14 01:12:21;;;;;;;1.93;1.80;;;;;;;20.43;83.83;99549.31;5113742;28;20195;-63
2023/09/14 01:14:58;;;;;;;2.20;2.10;;;;;;;20.39;83.89;99537.44;5114074;28;20201;-62
2023/09/14 01:17:35;;;;;;;3.50;2.50;;;;;;;20.32;84.09;99533.59;5113195;28;20224;-63
2023/09/14 01:20:19;;;;;;;2.20;2.03;;;;;;;20.36;84.88;99535.88;5113452;28;20203;-62
2023/09/14 01:23:00;;;;;;;2.30;2.20;;;;;;;20.31;84.30;99527.56;5113897;28;20206;-62
2023/09/14 01:25:40;;;;;;;4.33;1.90;;;;;;;20.30;84.74;99538.91;5113415;28;20209;-62
2023/09/14 01:28:08;;;;;;;2.27;2.10;;;;;;;20.25;84.74;99537.53;5113248;28;20708;-62
2023/09/14 01:30:34;;;;;;;2.33;1.57;;;;;;;20.25;85.28;99535.75;5113222;28;20223;-62
2023/09/14 01:33:01;;;;;;;3.37;2.03;;;;;;;20.27;85.14;99536.50;5113536;28;20196;-62
2023/09/14 01:35:30;;;;;;;3.47;2.30;;;;;;;20.30;85.07;99540.66;5113589;28;20196;-63
2023/09/14 01:37:58;;;;;;;1.83;1.73;;;;;;;20.31;85.04;99547.56;5109587;28;20621;-62
2023/09/14 01:40:27;;;;;;;2.90;2.70;;;;;;;20.33;84.81;99546.50;5112443;28;20628;-62
2023/09/14 01:42:56;;;;;;;2.00;1.90;;;;;;;20.35;84.75;99559.44;5112734;28;20201;-62
2023/09/14 01:45:24;;;;;;;4.10;2.03;;;;;;;20.36;84.89;99558.47;5112979;28;20207;-62
2023/09/14 01:47:53;;;;;;;3.77;2.27;;;;;;;20.37;84.59;99552.34;5113626;28;20208;-62
2023/09/14 01:50:20;;;;;;;3.33;2.20;;;;;;;20.39;84.44;99555.66;5113061;27;20309;-62
2023/09/14 01:52:47;;;;;;;5.27;2.50;;;;;;;20.39;84.19;99556.50;5112829;28;20193;-62
2023/09/14 01:55:13;;;;;;;1.77;1.67;;;;;;;20.39;84.26;99563.47;5112092;28;20208;-62
2023/09/14 01:57:40;;;;;;;2.63;2.30;;;;;;;20.37;84.06;99568.81;5113012;28;20787;-62
2023/09/14 02:00:10;;;;;;;3.07;1.90;;;;;;;20.36;84.11;99571.50;5108900;28;20264;-62
2023/09/14 02:02:36;;;;;;;4.93;2.47;;;;;;;20.34;84.20;99563.81;5112524;28;20262;-62
2023/09/14 02:05:04;;;;;;;2.70;2.03;;;;;;;20.30;84.66;99571.91;5113114;27;20204;-62
2023/09/14 02:07:30;;;;;;;2.33;2.13;;;;;;;20.21;84.47;99557.72;5112808;28;20293;-62
2023/09/14 02:09:57;;;;;;;5.70;3.40;;;;;;;20.14;84.90;99568.63;5112612;28;20220;-63
2023/09/14 02:12:24;;;;;;;2.80;2.60;;;;;;;20.15;84.64;99570.31;5112798;28;20671;-62
2023/09/14 02:14:51;;;;;;;2.10;2.00;;;;;;;20.10;84.46;99575.81;5112593;28;20203;-63
2023/09/14 02:17:20;;;;;;;4.97;1.80;;;;;;;20.06;84.83;99576.13;5112924;28;20200;-62
2023/09/14 02:19:47;;;;;;;2.60;2.40;;;;;;;20.00;85.14;99572.16;5112537;28;20202;-63
2023/09/14 02:22:13;;;;;;;2.07;1.97;;;;;;;19.96;84.86;99572.47;5112397;28;20199;-62
2023/09/14 02:24:40;;;;;;;1.70;1.60;;;;;;;19.95;84.42;99573.41;5112500;28;20196;-62
2023/09/14 02:27:07;;;;;;;2.80;2.60;;;;;;;19.91;84.95;99581.41;5112512;28;20201;-62
2023/09/14 02:29:34;;;;;;;11.33;2.80;;;;;;;19.90;84.73;99574.53;5112756;28;20203;-63
2023/09/14 02:32:00;;;;;;;11.37;2.67;;;;;;;19.89;84.83;99572.88;5111689;28;20560;-63
2023/09/14 02:34:28;;;;;;;3.23;2.60;;;;;;;19.84;85.13;99579.28;5112400;28;20201;-62
2023/09/14 02:36:55;;;;;;;7.90;2.50;;;;;;;19.78;85.22;99570.13;5110836;28;20684;-62
2023/09/14 02:39:22;;;;;;;2.63;2.43;;;;;;;19.76;85.64;99569.41;5112363;28;20204;-62
2023/09/14 02:41:49;;;;;;;2.60;2.40;;;;;;;19.74;85.81;99568.66;5111797;28;20203;-62
2023/09/14 02:44:15;;;;;;;2.60;2.40;;;;;;;19.73;85.69;99567.00;5112328;28;20664;-63
2023/09/14 02:46:42;;;;;;;1.77;1.67;;;;;;;19.69;86.13;99564.69;5111751;28;20226;-62
2023/09/14 02:49:09;;;;;;;2.60;2.37;;;;;;;19.67;86.23;99570.00;5112242;28;20197;-62
2023/09/14 02:51:37;;;;;;;7.83;2.60;;;;;;;19.64;86.13;99565.00;5112005;28;20639;-62
2023/09/14 02:54:04;;;;;;;2.17;2.07;;;;;;;19.64;85.92;99567.59;5112098;28;20207;-62
2023/09/14 02:56:31;;;;;;;7.03;2.80;;;;;;;19.61;86.36;99567.78;5110492;28;20198;-63
2023/09/14 02:58:58;;;;;;;2.83;2.63;;;;;;;19.64;86.32;99572.81;5111372;28;20635;-63
2023/09/14 03:01:25;;;;;;;2.53;2.43;;;;;;;19.62;86.17;99579.00;5111624;28;20682;-62
2023/09/14 03:03:51;;;;;;;5.87;2.43;;;;;;;19.59;86.25;99571.41;5111708;28;20203;-62
2023/09/14 03:06:18;;;;;;;1.87;1.77;;;;;;;19.55;86.22;99575.97;5111460;28;20199;-62
2023/09/14 03:08:46;;;;;;;2.77;2.30;;;;;;;19.53;85.93;99574.41;5111767;28;20283;-63
2023/09/14 03:11:13;;;;;;;2.20;2.10;;;;;;;19.51;86.59;99571.09;5111078;28;20280;-63
2023/09/14 03:13:40;;;;;;;2.87;2.67;;;;;;;19.45;86.77;99574.09;5111769;28;20659;-62
2023/09/14 03:16:06;;;;;;;2.40;2.30;;;;;;;19.42;86.80;99575.09;5110877;28;20206;-62
2023/09/14 03:18:33;;;;;;;2.80;2.37;;;;;;;19.39;86.99;99577.84;5110650;28;20253;-62
2023/09/14 03:21:00;;;;;;;2.00;1.90;;;;;;;19.37;86.84;99577.13;5111093;28;20191;-62
2023/09/14 03:23:27;;;;;;;2.50;2.33;;;;;;;19.35;86.87;99566.00;5111277;28;20194;-62
2023/09/14 03:25:57;;;;;;;2.13;2.03;;;;;;;19.31;87.04;99560.16;5111452;28;20191;-62
2023/09/14 03:28:23;;;;;;;6.07;2.33;;;;;;;19.30;86.89;99568.88;5111031;28;20207;-62
2023/09/14 03:30:50;;;;;;;2.27;2.17;;;;;;;19.26;87.10;99558.75;5110478;28;20211;-62
2023/09/14 03:33:17;;;;;;;2.30;2.20;;;;;;;19.17;87.11;99554.13;5111098;28;20256;-63
2023/09/14 03:35:43;;;;;;;4.33;2.00;;;;;;;19.10;87.33;99551.09;5111193;28;20196;-62
2023/09/14 03:38:11;;;;;;;2.53;2.27;;;;;;;19.20;87.47;99553.94;5110133;28;20199;-62
2023/09/14 03:40:37;;;;;;;4.60;2.60;;;;;;;19.18;86.94;99548.03;5110565;28;20195;-62
2023/09/14 03:43:06;;;;;;;2.57;2.47;;;;;;;19.11;87.42;99550.16;5111436;28;20217;-62
2023/09/14 03:45:32;;;;;;;3.00;2.77;;;;;;;19.08;88.06;99558.16;5110904;28;20198;-62
2023/09/14 03:47:59;;;;;;;2.37;2.27;;;;;;;19.04;88.56;99566.22;5110933;28;20190;-62
2023/09/14 03:50:27;;;;;;;4.87;3.07;;;;;;;18.92;89.49;99561.78;5110573;28;20233;-62
2023/09/14 03:52:54;;;;;;;4.70;3.63;;;;;;;18.87;90.05;99565.50;5111166;28;20583;-62
2023/09/14 03:55:21;;;;;;;4.17;2.90;;;;;;;18.84;90.09;99557.91;5111012;28;20206;-62
2023/09/14 03:57:47;;;;;;;2.70;2.33;;;;;;;18.78;90.37;99560.88;5110824;28;20205;-62
2023/09/14 04:00:17;;;;;;;2.83;2.63;;;;;;;18.76;90.75;99567.94;5110894;28;20195;-62
2023/09/14 04:02:44;;;;;;;2.27;2.17;;;;;;;18.71;90.75;99567.38;5111033;28;20195;-62
2023/09/14 04:05:12;;;;;;;2.40;2.30;;;;;;;18.73;91.10;99570.72;5111073;28;20600;-62
2023/09/14 04:07:39;;;;;;;3.70;2.80;;;;;;;18.69;91.32;99571.00;5110880;28;20685;-62
2023/09/14 04:10:10;;;;;;;2.67;2.50;;;;;;;18.64;91.80;99553.09;5110686;28;20198;-62
2023/09/14 04:12:38;;;;;;;6.57;2.90;;;;;;;18.70;91.61;99563.13;5110362;28;20200;-62
2023/09/14 04:15:06;;;;;;;2.97;2.77;;;;;;;18.68;91.89;99569.31;5110713;28;20237;-62
2023/09/14 04:17:35;;;;;;;4.47;2.60;;;;;;;18.68;92.37;99574.50;5110366;28;20217;-62
2023/09/14 04:20:08;;;;;;;3.93;3.63;;;;;;;18.66;92.17;99566.81;5110535;28;20198;-62
2023/09/14 04:22:35;;;;;;;5.07;2.67;;;;;;;18.63;92.48;99566.19;5110635;28;20191;-62
2023/09/14 04:25:02;;;;;;;3.30;3.10;;;;;;;18.62;92.57;99570.53;5110994;28;20199;-62
2023/09/14 04:27:29;;;;;;;3.87;3.00;;;;;;;18.63;93.18;99577.41;5110418;28;20202;-62
2023/09/14 04:29:56;;;;;;;3.23;2.70;;;;;;;18.65;93.34;99575.53;5110666;28;20287;-61
2023/09/14 04:32:23;;;;;;;2.97;2.37;;;;;;;18.66;93.96;99579.81;5114215;28;20291;-62
2023/09/14 04:34:51;;;;;;;2.80;2.60;;;;;;;18.70;94.54;99573.50;5114144;28;20201;-63
2023/09/14 04:37:18;;;;;;;3.20;3.00;;;;;;;18.74;94.90;99577.56;5114335;28;20198;-62
2023/09/14 04:39:46;;;;;;;3.07;2.70;;;;;;;18.77;94.29;99574.78;5114068;28;20195;-62
2023/09/14 04:42:13;;;;;;;3.23;2.70;;;;;;;18.81;93.91;99584.06;5114377;28;20203;-62
2023/09/14 04:44:40;;;;;;;6.07;2.83;;;;;;;18.88;93.29;99582.78;5114206;28;20194;-62
2023/09/14 04:47:07;;;;;;;3.70;3.27;;;;;;;18.96;92.98;99581.47;5114348;28;20295;-62
2023/09/14 04:49:34;;;;;;;2.73;2.63;;;;;;;19.01;92.70;99582.00;5111586;28;20203;-62
2023/09/14 04:52:02;;;;;;;5.40;4.03;;;;;;;19.10;92.26;99581.44;5114207;28;20238;-62
2023/09/14 04:54:29;;;;;;;6.50;3.27;;;;;;;19.14;91.87;99575.97;5114355;28;20202;-61
2023/09/14 04:56:55;;;;;;;7.00;3.37;;;;;;;18.97;92.57;99538.94;5114551;28;20203;-62
2023/09/14 04:59:24;;;;;;;3.50;3.30;;;;;;;19.25;93.25;99585.69;5113999;28;20672;-62
2023/09/14 05:01:51;;;;;;;3.27;3.07;;;;;;;19.37;92.88;99598.75;5113753;28;20577;-62
2023/09/14 05:04:18;;;;;;;2.93;2.73;;;;;;;19.45;92.52;99598.28;5113615;27;20216;-62
2023/09/14 05:06:45;;;;;;;3.07;2.80;;;;;;;19.53;92.75;99584.81;5114361;28;20195;-62
2023/09/14 05:09:13;;;;;;;3.20;2.93;;;;;;;19.70;91.26;99595.81;5113974;28;20241;-63
2023/09/14 05:11:40;;;;;;;2.93;2.73;;;;;;;19.85;91.14;99592.22;5113369;28;20211;-62
2023/09/14 05:14:06;;;;;;;4.77;3.33;;;;;;;20.03;90.19;99604.97;5111218;28;20827;-62
2023/09/14 05:16:33;;;;;;;3.90;2.70;;;;;;;20.09;89.20;99588.94;5112772;28;20209;-62
2023/09/14 05:19:00;;;;;;;4.50;3.23;;;;;;;20.38;88.21;99611.31;5113382;28;20204;-62
2023/09/14 05:21:26;;;;;;;3.53;2.80;;;;;;;20.51;88.85;99596.53;5110421;28;20201;-62
2023/09/14 05:23:53;;;;;;;3.80;3.33;;;;;;;20.65;88.55;99609.44;5112805;28;20667;-61
2023/09/14 05:26:21;;;;;;;10.57;2.83;;;;;;;20.82;87.19;99622.16;5108448;28;20209;-61
2023/09/14 05:28:48;;;;;;;3.23;3.03;;;;;;;20.93;84.83;99614.44;5110807;28;20204;-61
2023/09/14 05:31:15;;;;;;;2.90;2.70;;;;;;;21.03;84.39;99606.81;5110794;28;20232;-64
2023/09/14 05:33:42;;;;;;;5.13;2.87;;;;;;;21.15;83.74;99605.13;5111892;28;20200;-62
2023/09/14 05:36:08;;;;;;;3.20;2.90;;;;;;;21.23;83.74;99610.63;5112134;28;20217;-61
2023/09/14 05:38:35;;;;;;;9.30;3.17;;;;;;;21.42;85.84;99616.25;5111090;28;20679;-63
2023/09/14 05:41:03;;;;;;;4.23;2.77;;;;;;;21.60;83.61;99619.31;5112368;28;20208;-62
2023/09/14 05:43:31;;;;;;;2.97;2.87;;;;;;;21.69;82.50;99603.81;5111183;28;20203;-63
2023/09/14 05:45:59;;;;;;;5.37;2.87;;;;;;;21.97;82.21;99607.91;5112353;28;20232;-61
2023/09/14 05:48:26;;;;;;;2.90;2.70;;;;;;;22.13;81.23;99604.97;5111562;27;20262;-62
2023/09/14 05:50:53;;;;;;;3.27;3.07;;;;;;;22.30;79.38;99605.38;5112319;27;20782;-62
2023/09/14 05:53:20;;;;;;;3.23;2.97;;;;;;;22.44;80.57;99609.56;5111521;28;20248;-62
2023/09/14 05:55:47;;;;;;;2.83;2.63;;;;;;;22.35;77.72;99571.09;5111323;28;20206;-64
2023/09/14 05:58:13;;;;;;;5.37;3.57;;;;;;;22.81;78.46;99611.06;5111205;28;20213;-62
2023/09/14 06:00:41;;;;;;;7.13;2.60;;;;;;;23.03;76.15;99612.84;5112810;28;20543;-63
2023/09/14 06:03:08;;;;;;;4.50;2.90;;;;;;;23.14;74.81;99607.59;5111992;28;20195;-63
2023/09/14 06:05:35;;;;;;;3.93;3.63;;;;;;;23.26;73.52;99611.91;5112326;28;20198;-63
2023/09/14 06:08:02;;;;;;;2.47;2.37;;;;;;;23.37;72.24;99613.63;5111124;28;20715;-63
2023/09/14 06:10:29;;;;;;;3.37;2.90;;;;;;;23.53;71.48;99604.47;5111668;28;20215;-63
2023/09/14 06:12:56;;;;;;;3.33;2.03;;;;;;;23.73;71.35;99600.25;5110814;28;21010;-62
2023/09/14 06:15:23;;;;;;;2.60;2.43;;;;;;;23.76;69.74;99597.38;5110174;28;20203;-63
2023/09/14 06:17:51;;;;;;;3.23;3.03;;;;;;;23.81;69.08;99600.44;5112253;28;20647;-64
2023/09/14 06:20:18;;;;;;;2.77;2.57;;;;;;;23.81;68.41;99602.25;5111922;28;20221;-64
2023/09/14 06:22:45;;;;;;;2.90;2.70;;;;;;;23.73;69.92;99600.25;5106871;28;20682;-63
2023/09/14 06:25:11;;;;;;;3.60;3.40;;;;;;;23.89;70.27;99605.91;5110675;28;20203;-63
2023/09/14 06:27:38;;;;;;;3.00;2.80;;;;;;;24.02;69.00;99608.34;5110861;28;20202;-62
2023/09/14 06:30:06;;;;;;;3.53;3.20;;;;;;;24.14;69.44;99617.84;5111656;28;20199;-63
2023/09/14 06:32:33;;;;;;;3.53;3.27;;;;;;;24.29;69.25;99616.59;5111630;28;20214;-63
2023/09/14 06:35:01;;;;;;;3.73;3.27;;;;;;;24.44;68.53;99611.84;5111922;28;20206;-63
2023/09/14 06:37:28;;;;;;;3.47;3.30;;;;;;;24.54;70.61;99613.56;5111742;28;20213;-63
2023/09/14 06:39:55;;;;;;;4.03;3.47;;;;;;;24.53;67.57;99601.41;5111773;28;20199;-64
2023/09/14 06:42:21;;;;;;;4.77;3.83;;;;;;;24.70;67.16;99617.50;5112033;28;20654;-63
2023/09/14 06:44:48;;;;;;;3.70;3.40;;;;;;;24.79;66.76;99622.81;5110246;28;20214;-64
2023/09/14 06:47:15;;;;;;;3.37;3.17;;;;;;;24.78;66.60;99626.38;5109024;28;20226;-63
2023/09/14 06:49:42;;;;;;;3.43;3.23;;;;;;;24.87;66.80;99625.66;5111806;28;20210;-63
2023/09/14 06:52:10;;;;;;;3.70;3.00;;;;;;;24.79;66.53;99622.81;5111863;28;20222;-63
2023/09/14 06:54:37;;;;;;;3.57;3.27;;;;;;;24.99;66.34;99623.75;5110194;28;20642;-63
2023/09/14 06:57:04;;;;;;;5.13;3.30;;;;;;;25.16;66.09;99624.94;5108683;28;20202;-63
2023/09/14 06:59:31;;;;;;;4.47;3.30;;;;;;;25.40;64.68;99628.03;5109060;28;20248;-63
2023/09/14 07:01:59;;;;;;;4.97;2.63;;;;;;;25.52;63.08;99624.38;5109973;28;20715;-63
2023/09/14 07:04:28;;;;;;;2.87;2.67;;;;;;;25.65;65.01;99624.13;5109089;28;20609;-63
2023/09/14 07:06:55;;;;;;;3.50;3.20;;;;;;;25.54;62.50;99604.06;5110808;27;20205;-63
2023/09/14 07:09:24;;;;;;;3.10;2.90;;;;;;;25.49;64.05;99616.75;5110641;28;20256;-63
2023/09/14 07:11:51;;;;;;;3.00;2.70;;;;;;;25.67;64.55;99620.38;5109179;28;20218;-64
2023/09/14 07:14:17;;;;;;;2.20;2.10;;;;;;;25.91;62.70;99623.44;5108670;28;20727;-64
2023/09/14 07:16:44;;;;;;;3.63;3.43;;;;;;;26.09;61.87;99626.19;5110355;28;20202;-64
2023/09/14 07:19:13;;;;;;;2.97;2.77;;;;;;;26.01;59.94;99623.47;5112277;27;20639;-64
2023/09/14 07:21:40;;;;;;;2.47;2.37;;;;;;;26.05;60.38;99619.56;5111425;28;20194;-64
2023/09/14 07:24:07;;;;;;;2.93;2.73;;;;;;;25.93;60.29;99621.50;5110066;27;20238;-63
2023/09/14 07:26:38;;;;;;;2.67;2.50;;;;;;;26.09;59.38;99620.94;5114062;27;20195;-63
2023/09/14 07:29:05;;;;;;;4.03;3.30;;;;;;;26.01;59.52;99613.75;5111169;28;20305;-63
2023/09/14 07:31:32;;;;;;;2.67;2.57;;;;;;;26.04;60.45;99612.66;5107725;28;20233;-63
2023/09/14 07:33:58;;;;;;;2.47;2.33;;;;;;;26.09;60.80;99611.28;5111137;28;20198;-63
2023/09/14 07:36:25;;;;;;;2.53;2.43;;;;;;;26.26;60.94;99616.81;5111366;28;20199;-63
2023/09/14 07:38:53;;;;;;;2.80;2.67;;;;;;;26.26;59.61;99611.56;5111148;28;20320;-63
2023/09/14 07:41:20;;;;;;;2.57;2.37;;;;;;;26.38;58.85;99605.19;5110979;28;20237;-63
2023/09/14 07:43:48;;;;;;;2.10;2.00;;;;;;;26.65;56.84;99602.63;5110923;28;20263;-63
2023/09/14 07:46:14;;;;;;;5.10;2.00;;;;;;;26.86;57.07;99605.91;5111082;28;20223;-63
2023/09/14 07:48:42;;;;;;;2.30;2.17;;;;;;;26.96;56.25;99585.63;5110779;28;20206;-63
2023/09/14 07:51:09;;;;;;;3.00;2.37;;;;;;;27.05;54.53;99604.97;5110588;28;20195;-63
2023/09/14 07:53:36;;;;;;;3.00;2.50;;;;;;;26.65;55.91;99571.06;5110620;28;20268;-63
2023/09/14 07:56:03;;;;;;;3.03;2.17;;;;;;;26.97;55.75;99608.34;5109909;28;20677;-64
2023/09/14 07:58:30;;;;;;;3.77;2.43;;;;;;;27.11;55.60;99599.97;5111168;28;20198;-64
2023/09/14 08:00:58;;;;;;;3.10;2.80;;;;;;;27.23;55.31;99599.78;5110241;28;20202;-63
2023/09/14 08:03:27;;;;;;;2.60;2.37;;;;;;;27.23;54.54;99597.13;5110300;28;20206;-63
2023/09/14 08:05:54;;;;;;;1.60;1.50;;;;;;;27.23;55.06;99607.66;5112896;28;20650;-63
2023/09/14 08:08:21;;;;;;;1.77;1.67;;;;;;;27.36;53.82;99598.47;5115006;28;20195;-63
2023/09/14 08:10:51;;;;;;;1.60;1.60;;;;;;;27.42;52.89;99599.66;5115304;28;20198;-63
2023/09/14 08:13:17;;;;;;;1.80;1.70;;;;;;;27.43;53.08;99590.78;5114597;28;20781;-63
2023/09/14 08:15:44;;;;;;;2.17;1.63;;;;;;;27.51;52.59;99585.63;5115007;28;20245;-63
2023/09/14 08:18:13;;;;;;;1.87;1.77;;;;;;;27.55;51.88;99587.00;5114801;28;20206;-63
2023/09/14 08:20:39;;;;;;;1.97;1.87;;;;;;;27.59;53.59;99586.53;5114804;28;20214;-63
2023/09/14 08:23:06;;;;;;;1.77;1.67;;;;;;;27.74;53.12;99584.22;5114359;28;20200;-63
2023/09/14 08:25:33;;;;;;;2.40;1.67;;;;;;;27.89;52.16;99585.31;5114367;28;20199;-63
2023/09/14 08:28:00;;;;;;;1.40;1.30;;;;;;;28.08;53.69;99574.63;5114550;28;20582;-63
2023/09/14 08:30:27;;;;;;;4.10;1.73;;;;;;;28.15;51.78;99580.97;5114092;28;20663;-63
2023/09/14 08:32:54;;;;;;;1.73;1.63;;;;;;;28.06;52.08;99573.97;5114769;28;20267;-63
2023/09/14 08:35:24;;;;;;;1.33;1.30;;;;;;;28.07;50.92;99578.28;5114550;28;20195;-63
2023/09/14 08:37:52;;;;;;;1.93;1.83;;;;;;;28.21;50.87;99570.81;5114601;28;20203;-62
2023/09/14 08:40:19;;;;;;;1.93;1.80;;;;;;;28.32;49.14;99565.25;5114648;28;20705;-63
2023/09/14 08:42:49;;;;;;;1.30;1.20;;;;;;;28.25;49.85;99558.94;5110714;28;20226;-63
2023/09/14 08:45:20;;;;;;;1.50;1.40;;;;;;;28.13;48.45;99566.28;5112637;28;20198;-63
2023/09/14 08:47:48;;;;;;;1.60;1.50;;;;;;;28.37;48.47;99563.00;5114345;28;20203;-63
2023/09/14 08:50:16;;;;;;;1.50;1.40;;;;;;;28.48;47.99;99555.63;5113781;28;20286;-63
2023/09/14 08:52:46;;;;;;;1.47;1.37;;;;;;;28.73;48.66;99564.53;5113779;28;20215;-63
2023/09/14 08:55:13;;;;;;;2.40;1.50;;;;;;;28.91;49.29;99556.53;5112463;28;20219;-63
2023/09/14 08:57:42;;;;;;;1.90;1.37;;;;;;;29.06;48.08;99557.56;5114119;28;20666;-64
2023/09/14 09:00:15;;;;;;;1.30;1.20;;;;;;;29.22;47.39;99543.59;5111473;28;20201;-64
2023/09/14 09:02:43;;;;;;;1.63;1.50;;;;;;;29.16;46.45;99543.25;5111457;28;20199;-63
2023/09/14 09:05:11;;;;;;;3.42;1.55;;;;;;;29.26;48.76;99523.81;5113296;28;20623;-64
2023/09/14 09:07:40;;;;;;;2.00;1.20;;;;;;;29.38;46.98;99539.19;5113268;28;20277;-64
2023/09/14 09:10:16;;;;;;;1.90;1.75;;;;;;;29.07;46.07;99541.59;5111636;28;20675;-64
2023/09/14 09:12:45;;;;;;;1.30;1.30;;;;;;;28.65;48.31;99535.44;5113676;28;20278;-63
2023/09/14 09:15:13;;;;;;;1.43;1.33;;;;;;;28.86;46.52;99527.97;5111156;28;20194;-64
2023/09/14 09:17:41;;;;;;;1.40;1.30;;;;;;;28.82;45.93;99523.19;5112455;28;20205;-64
2023/09/14 09:20:19;;;;;;;2.70;1.17;;;;;;;28.77;46.85;99517.53;5112613;28;20582;-64
2023/09/14 09:22:47;;;;;;;1.25;1.17;;;;;;;29.06;48.13;99518.81;5112423;28;20210;-64
2023/09/14 09:25:15;;;;;;;1.63;1.53;;;;;;;28.91;46.69;99514.31;5111958;28;20210;-65
2023/09/14 09:27:42;;;;;;;1.83;0.77;;;;;;;29.12;45.69;99512.88;5112375;28;20743;-64
2023/09/14 09:30:09;;;;;;;2.97;1.40;;;;;;;29.36;45.05;99498.94;5112270;28;20651;-64
2023/09/14 09:32:37;;;;;;;1.38;1.27;;;;;;;29.45;45.56;99503.22;5112770;28;20218;-64
2023/09/14 09:35:19;;;;;;;1.00;1.00;;;;;;;29.56;45.20;99496.81;5112422;28;20236;-64
2023/09/14 09:37:46;;;;;;;1.35;1.25;;;;;;;29.54;43.58;99490.84;5110820;28;20198;-64
2023/09/14 09:40:15;;;;;;;2.50;1.20;;;;;;;29.58;44.83;99492.16;5111423;28;20206;-64
2023/09/14 09:42:43;;;;;;;6.07;1.90;;;;;;;29.60;44.00;99484.88;5112839;28;20205;-63
2023/09/14 09:45:10;;;;;;;1.50;1.40;;;;;;;29.54;45.16;99496.13;5108768;28;20305;-63
2023/09/14 09:47:37;;;;;;;1.30;1.20;;;;;;;29.66;44.19;99489.53;5111888;28;20226;-64
2023/09/14 09:50:06;;;;;;;2.93;1.10;;;;;;;29.24;44.22;99489.66;5112395;27;20734;-64
2023/09/14 09:52:34;;;;;;;1.48;1.40;;;;;;;29.31;44.71;99485.38;5113221;27;20218;-63
2023/09/14 09:55:00;;;;;;;1.57;1.20;;;;;;;29.57;50.16;99478.13;5112983;27;20233;-63
2023/09/14 09:57:30;;;;;;;1.40;1.30;;;;;;;29.63;45.59;99485.38;5111872;27;20194;-63
2023/09/14 09:59:57;;;;;;;1.13;1.13;;;;;;;29.91;44.94;99475.34;5111536;28;20229;-62
2023/09/14 10:02:32;;;;;;;2.05;1.00;;;;;;;30.05;44.59;99469.34;5111624;28;20211;-63
2023/09/14 10:04:59;;;;;;;1.10;1.10;;;;;;;30.27;45.01;99477.56;5111808;28;20203;-63
2023/09/14 10:07:26;;;;;;;1.38;1.27;;;;;;;30.04;43.27;99473.00;5112665;27;20241;-63
2023/09/14 10:09:54;;;;;;;1.75;1.65;;;;;;;29.95;43.20;99474.00;5108761;28;20198;-63
2023/09/14 10:12:25;;;;;;;1.13;1.13;;;;;;;30.05;43.88;99466.69;5108912;28;20202;-64
2023/09/14 10:14:55;;;;;;;2.13;1.70;;;;;;;30.16;44.76;99466.34;5108580;28;20682;-63
2023/09/14 10:17:23;;;;;;;1.88;1.08;;;;;;;30.29;44.05;99465.00;5109847;28;20202;-63
2023/09/14 10:19:52;;;;;;;1.60;1.50;;;;;;;30.27;43.82;99467.00;5109864;28;20718;-62
2023/09/14 10:22:20;;;;;;;1.45;1.45;;;;;;;30.26;44.75;99454.75;5107160;28;20791;-63
2023/09/14 10:24:49;;;;;;;1.20;1.20;;;;;;;30.31;41.79;99457.72;5115054;27;20631;-63
2023/09/14 10:27:16;;;;;;;1.27;1.27;;;;;;;30.43;42.90;99454.56;5111455;28;20199;-63
2023/09/14 10:29:45;;;;;;;0.88;0.88;;;;;;;30.43;42.15;99451.09;5111443;28;20685;-63
2023/09/14 10:32:14;;;;;;;1.10;1.10;;;;;;;30.44;42.59;99447.44;5111103;28;20742;-63
2023/09/14 10:34:42;;;;;;;1.05;1.05;;;;;;;30.43;43.32;99451.09;5111843;28;20202;-63
2023/09/14 10:37:11;;;;;;;8.82;1.50;;;;;;;30.34;42.24;99452.09;5112175;27;20202;-63
2023/09/14 10:39:38;;;;;;;1.17;1.17;;;;;;;30.41;42.36;99447.78;5111008;27;20285;-63
2023/09/14 10:42:05;;;;;;;1.00;1.00;;;;;;;30.36;41.87;99444.81;5112061;28;20210;-64
2023/09/14 10:44:33;;;;;;;3.25;1.00;;;;;;;30.50;40.36;99452.88;5111542;28;20655;-63
2023/09/14 10:47:02;;;;;;;1.30;1.20;;;;;;;30.60;40.81;99444.72;5111106;28;20363;-63
2023/09/14 10:49:33;;;;;;;1.15;1.15;;;;;;;30.84;40.76;99444.59;5109777;28;20213;-64
2023/09/14 10:52:03;;;;;;;1.55;1.45;;;;;;;30.85;41.39;99435.66;5110376;28;20195;-63
2023/09/14 10:54:32;;;;;;;1.10;1.00;;;;;;;30.73;38.46;99442.34;5109105;28;20640;-64
2023/09/14 10:57:00;;;;;;;1.50;1.45;;;;;;;30.67;39.36;99432.44;5110840;28;20209;-63
2023/09/14 10:59:48;;;;;;;2.53;1.13;;;;;;;30.56;39.26;99424.91;5110150;28;20290;-63
2023/09/14 11:02:49;;;;;;;0.98;0.98;;;;;;;30.64;38.36;99427.50;5110379;28;20214;-63
2023/09/14 11:05:19;;;;;;;1.23;1.13;;;;;;;30.73;40.01;99422.00;5109994;28;20202;-64
2023/09/14 11:07:48;;;;;;;1.00;1.00;;;;;;;30.50;39.11;99370.03;5110900;28;20199;-64
2023/09/14 11:10:17;;;;;;;3.13;1.33;;;;;;;30.96;40.24;99422.03;5111153;28;20650;-63
2023/09/14 11:12:44;;;;;;;1.08;1.08;;;;;;;31.12;39.91;99411.34;5109566;28;20750;-63
2023/09/14 11:15:15;;;;;;;3.38;1.40;;;;;;;31.12;38.69;99390.16;5110756;28;20283;-64
2023/09/14 11:17:42;;;;;;;1.58;1.10;;;;;;;31.15;40.65;99418.09;5110367;28;20195;-63
2023/09/14 11:20:38;;;;;;;1.75;0.98;;;;;;;31.20;41.85;99402.53;5111022;28;20249;-64
2023/09/14 11:23:07;;;;;;;1.20;1.08;;;;;;;31.27;40.94;99407.94;5108612;28;20226;-63
2023/09/14 11:25:36;;;;;;;1.00;1.00;;;;;;;31.32;40.29;99402.91;5109978;27;20719;-65
2023/09/14 11:28:03;;;;;;;1.10;1.10;;;;;;;31.39;41.76;99401.19;5111629;28;20661;-64
2023/09/14 11:30:31;;;;;;;2.17;1.20;;;;;;;31.43;40.04;99392.72;5111447;28;20199;-64
2023/09/14 11:33:00;;;;;;;1.73;1.20;;;;;;;31.39;40.17;99398.53;5111545;28;20597;-64
2023/09/14 11:35:36;;;;;;;2.00;1.42;;;;;;;31.36;38.55;99391.78;5111242;28;20198;-64
2023/09/14 11:38:05;;;;;;;1.55;1.33;;;;;;;31.32;38.88;99389.66;5113204;28;20766;-64